Hanceville, Alabama
Current Conditions -  °F | °C
As of 6:35 AM on Monday 24 Nov 2014 (Local Time) from KCMD Reporting Station
Broken Clouds Broken Clouds  
Wind Chill: 61°   Ceiling: 3200
Heat Index: 61°   Visibility: 10mi
Dew Point: 56°   Wind: 17mph
Humidity: 84%   Direction: 210°SSW
Pressure: 29.72"   Gusts: 29mph
Location:  34.06°N, 86.77°W
Report Text: KCMD 241235Z AUTO 21015G25KT 10SM SCT018 SCT023 BKN032 16/14 A2972 RMK AO2 T01620135
Loading
Personal Weather Stations






























Interactive Weather Map New forecast layout! Learn more

10-Day Weather Forecast

Advertisements
Track Severe Weather on mobile